Search for airport 
image banner adimage banner adimage banner ad
image banner ad

KRDK - Red Oak Muni

Located in Red Oak, United States

ICAO - RDK, IATA -

Data provided by Airmate  

General information

Coordinates: N41°0'39" W95°15'32"
Elevation is 1045 feet MSL.
Magnetic variation is 04° East
View others Airports in Iowa

Operational data

Special qualification required
Current time UTC:
Current local time:
Weather
METAR: KRDK 151015Z AUTO 02003KT 10SM OVC065 17/15 A3011 RMK AO2
View NOTAMs / SUP AIP / TFR affecting this airport [VIEW]
Communications frequencies: [VIEW]

Runways:

RWY identifierQFULength (ft)Width (ft)SurfaceLDA (ft)
0558°510075CONC
23238°510075CONC
17174°290160CONC
35354°290160CONC
13142°2050210GRASS
31322°2050210GRASS

Airport contact information

Address: Red Oak United States

Other aviation service providers

Flight schools

Red Oak Municipal

Red Oak Municipal
nrdk@live.com+1(712)623-6523

Satellite view of KRDK